createdAt,value
2018-08-06T00:03:53.494Z,17.30
2018-08-06T00:08:44.377Z,17.20
2018-08-06T00:13:35.289Z,17.20
2018-08-06T00:18:26.179Z,17.10
2018-08-06T00:23:17.143Z,17.10
2018-08-06T00:28:08.039Z,17.10
2018-08-06T00:32:58.928Z,17.10
2018-08-06T00:37:49.814Z,17.00
2018-08-06T00:42:41.483Z,17.00
2018-08-06T00:47:32.411Z,16.90
2018-08-06T00:52:23.339Z,16.90
2018-08-06T00:57:14.236Z,16.90
2018-08-06T01:02:05.163Z,16.90
2018-08-06T01:06:56.068Z,16.80
2018-08-06T01:11:47.047Z,16.80
2018-08-06T01:16:37.963Z,16.80
2018-08-06T01:21:28.864Z,16.70
2018-08-06T01:26:19.765Z,16.70
2018-08-06T01:31:10.700Z,16.70
2018-08-06T01:36:01.634Z,16.70
2018-08-06T01:40:52.550Z,16.60
2018-08-06T01:45:43.540Z,16.60
2018-08-06T01:50:35.183Z,16.50
2018-08-06T01:55:26.124Z,16.50
2018-08-06T02:00:17.018Z,16.50
2018-08-06T02:05:08.010Z,16.50
2018-08-06T02:09:58.933Z,16.40
2018-08-06T02:14:49.866Z,16.40
2018-08-06T02:19:40.780Z,16.40
2018-08-06T02:24:31.714Z,16.30
2018-08-06T02:29:22.634Z,16.20
2018-08-06T02:34:13.540Z,16.20
2018-08-06T02:39:04.514Z,16.20
2018-08-06T02:43:55.430Z,16.10
2018-08-06T02:48:46.327Z,16.00
2018-08-06T02:53:37.256Z,16.00
2018-08-06T03:03:26.516Z,15.80
2018-08-06T03:08:17.434Z,15.80
2018-08-06T03:13:08.355Z,15.80
2018-08-06T03:17:59.278Z,15.70
2018-08-06T03:22:50.196Z,15.70
2018-08-06T03:27:41.102Z,15.60
2018-08-06T03:32:32.002Z,15.60
2018-08-06T03:37:23.739Z,15.50
2018-08-06T03:42:15.390Z,15.50
2018-08-06T03:47:06.307Z,15.40
2018-08-06T03:51:57.947Z,15.40
2018-08-06T03:56:48.918Z,15.40
2018-08-06T04:01:39.884Z,15.40
2018-08-06T04:06:30.802Z,15.30
2018-08-06T04:11:21.707Z,15.30
2018-08-06T04:16:13.350Z,15.20
2018-08-06T04:21:04.344Z,15.20
2018-08-06T04:25:56.733Z,15.20
2018-08-06T04:30:47.703Z,15.10
2018-08-06T04:35:38.615Z,15.20
2018-08-06T04:40:29.530Z,15.20
2018-08-06T04:45:20.447Z,15.20
2018-08-06T04:50:11.381Z,15.20
2018-08-06T04:55:02.268Z,15.20
2018-08-06T04:59:53.169Z,15.30
2018-08-06T05:04:44.088Z,15.30
2018-08-06T05:09:35.049Z,15.30
2018-08-06T05:14:25.953Z,15.40
2018-08-06T05:19:16.870Z,15.40
2018-08-06T05:24:07.770Z,15.50
2018-08-06T05:28:58.757Z,15.60
2018-08-06T05:33:50.447Z,15.80
2018-08-06T05:38:41.341Z,15.80
2018-08-06T05:43:32.235Z,15.80
2018-08-06T05:48:23.994Z,16.00
2018-08-06T05:53:14.798Z,16.00
2018-08-06T05:58:05.728Z,16.20
2018-08-06T06:02:56.631Z,16.30
2018-08-06T06:07:48.259Z,16.50
2018-08-06T06:12:39.887Z,16.70
2018-08-06T06:17:31.576Z,16.80
2018-08-06T06:22:22.469Z,16.80
2018-08-06T06:27:13.353Z,16.90
2018-08-06T06:32:04.242Z,17.10
2018-08-06T06:36:55.168Z,17.20
2018-08-06T06:41:46.109Z,17.30
2018-08-06T06:46:36.990Z,17.50
2018-08-06T06:51:27.876Z,17.60
2018-08-06T06:56:18.804Z,17.70
2018-08-06T07:01:09.739Z,17.80
2018-08-06T07:06:00.646Z,17.90
2018-08-06T07:10:51.572Z,18.10
2018-08-06T07:15:42.536Z,18.20
2018-08-06T07:20:34.188Z,18.60
2018-08-06T07:25:25.852Z,18.80
2018-08-06T07:30:16.759Z,18.70
2018-08-06T07:35:07.663Z,19.00
2018-08-06T07:39:59.318Z,19.40
2018-08-06T07:44:50.228Z,19.30
2018-08-06T07:49:41.228Z,19.60
2018-08-06T07:54:32.106Z,19.80
2018-08-06T07:59:23.004Z,19.90
2018-08-06T08:04:13.911Z,20.10
2018-08-06T08:09:04.839Z,20.30
2018-08-06T08:13:55.743Z,20.50
2018-08-06T08:18:46.647Z,20.60
2018-08-06T08:23:38.299Z,20.90
2018-08-06T08:28:29.215Z,20.80
2018-08-06T08:33:20.194Z,21.00
2018-08-06T08:38:11.100Z,21.10
2018-08-06T08:43:02.032Z,21.20
2018-08-06T08:47:52.954Z,21.30
2018-08-06T08:52:43.859Z,21.40
2018-08-06T08:57:34.755Z,21.50
2018-08-06T09:02:25.666Z,21.60
2018-08-06T09:07:16.678Z,21.70
2018-08-06T09:12:07.587Z,21.80
2018-08-06T09:16:58.552Z,21.90
2018-08-06T09:21:49.578Z,22.00
2018-08-06T09:26:40.538Z,22.10
2018-08-06T09:31:31.421Z,22.10
2018-08-06T09:36:22.332Z,22.20
2018-08-06T09:41:13.978Z,22.40
2018-08-06T09:46:04.884Z,22.40
2018-08-06T09:50:55.793Z,22.50
2018-08-06T09:55:46.711Z,22.60
2018-08-06T10:00:37.637Z,22.70
2018-08-06T10:05:28.563Z,22.70
2018-08-06T10:10:20.232Z,22.90
2018-08-06T10:15:11.153Z,22.90
2018-08-06T10:20:02.935Z,23.10
2018-08-06T10:24:53.860Z,23.20
2018-08-06T10:29:44.768Z,23.30
2018-08-06T10:34:35.676Z,23.40
2018-08-06T10:39:26.576Z,23.50
2018-08-06T10:44:17.479Z,23.70
2018-08-06T10:49:08.386Z,23.80
2018-08-06T10:54:00.079Z,24.20
2018-08-06T10:58:50.963Z,24.20
2018-08-06T11:03:41.863Z,24.40
2018-08-06T11:08:33.512Z,24.90
2018-08-06T11:13:24.445Z,24.80
2018-08-06T11:18:15.356Z,25.10
2018-08-06T11:23:06.301Z,25.40
2018-08-06T11:27:57.212Z,25.80
2018-08-06T11:32:48.124Z,26.10
2018-08-06T11:37:39.036Z,26.50
2018-08-06T11:42:29.945Z,26.90
2018-08-06T11:47:20.869Z,27.30
2018-08-06T11:52:11.783Z,27.70
2018-08-06T11:57:02.710Z,28.20
2018-08-06T12:01:53.642Z,28.70
2018-08-06T12:06:44.562Z,29.10
2018-08-06T12:11:35.463Z,29.60
2018-08-06T12:16:26.478Z,30.00
2018-08-06T12:21:17.448Z,30.40
2018-08-06T12:26:08.485Z,30.80
2018-08-06T12:31:00.024Z,31.60
2018-08-06T12:35:51.689Z,31.90
2018-08-06T12:40:42.603Z,31.90
2018-08-06T12:45:33.508Z,32.20
2018-08-06T12:50:25.166Z,32.70
2018-08-06T12:55:16.069Z,32.70
2018-08-06T13:00:06.974Z,32.90
2018-08-06T13:04:58.709Z,32.80
2018-08-06T13:09:49.614Z,32.80
2018-08-06T13:14:40.556Z,32.70
2018-08-06T13:19:31.507Z,32.60
2018-08-06T13:24:22.412Z,32.40
2018-08-06T13:29:13.312Z,32.30
2018-08-06T13:34:04.326Z,32.10
2018-08-06T13:38:56.030Z,31.70
2018-08-06T13:43:46.932Z,31.70
2018-08-06T13:48:37.855Z,31.40
2018-08-06T13:53:28.808Z,31.20
2018-08-06T13:58:20.456Z,30.90
2018-08-06T14:03:12.105Z,30.70
2018-08-06T14:08:03.049Z,30.70
2018-08-06T14:12:53.967Z,30.50
2018-08-06T14:17:44.907Z,30.30
2018-08-06T14:22:35.833Z,30.20
2018-08-06T14:27:27.483Z,30.00
2018-08-06T14:32:18.383Z,30.10
2018-08-06T14:37:09.300Z,30.10
2018-08-06T14:42:00.216Z,30.40
2018-08-06T14:46:51.155Z,30.70
2018-08-06T14:51:42.117Z,31.00
2018-08-06T14:56:33.727Z,31.50
2018-08-06T15:01:25.382Z,31.70
2018-08-06T15:06:16.294Z,31.70
2018-08-06T15:11:07.261Z,31.90
2018-08-06T15:15:58.142Z,32.00
2018-08-06T15:20:49.060Z,32.10
2018-08-06T15:25:39.996Z,32.20
2018-08-06T15:30:30.904Z,32.30
2018-08-06T15:35:21.908Z,32.40
2018-08-06T15:40:12.815Z,32.50
2018-08-06T15:45:03.746Z,32.50
2018-08-06T15:49:54.669Z,32.50
2018-08-06T15:54:45.567Z,32.30
2018-08-06T15:59:37.287Z,32.10
2018-08-06T16:04:28.947Z,31.90
2018-08-06T16:09:19.861Z,31.90
2018-08-06T16:14:11.504Z,31.60
2018-08-06T16:19:02.413Z,31.60
2018-08-06T16:23:54.051Z,31.30
2018-08-06T16:28:45.689Z,31.10
2018-08-06T16:33:37.328Z,31.00
2018-08-06T16:38:28.241Z,31.00
2018-08-06T16:43:19.884Z,30.60
2018-08-06T16:48:10.797Z,30.60
2018-08-06T16:53:01.687Z,30.50
2018-08-06T16:57:52.596Z,30.40
2018-08-06T17:02:43.495Z,30.20
2018-08-06T17:07:34.395Z,30.00
2018-08-06T17:12:25.305Z,29.80
2018-08-06T17:17:16.216Z,29.70
2018-08-06T17:22:07.146Z,29.60
2018-08-06T17:26:58.047Z,29.40
2018-08-06T17:31:48.951Z,29.30
2018-08-06T17:36:40.599Z,28.90
2018-08-06T17:41:31.502Z,28.90
2018-08-06T17:46:23.152Z,28.70
2018-08-06T17:51:14.090Z,28.60
2018-08-06T17:56:04.993Z,28.50
2018-08-06T18:00:55.916Z,28.40
2018-08-06T18:05:46.845Z,28.20
2018-08-06T18:10:37.796Z,28.10
2018-08-06T18:15:28.714Z,27.90
2018-08-06T18:20:19.629Z,27.80
2018-08-06T18:25:10.564Z,27.60
2018-08-06T18:30:01.471Z,27.40
2018-08-06T18:34:52.434Z,27.30
2018-08-06T18:39:43.343Z,27.10
2018-08-06T18:44:35.011Z,26.70
2018-08-06T18:49:25.928Z,26.70
2018-08-06T18:54:16.836Z,26.50
2018-08-06T18:59:07.760Z,26.40
2018-08-06T19:03:58.676Z,26.10
2018-08-06T19:08:49.596Z,25.90
2018-08-06T19:18:58.378Z,25.50
2018-08-06T19:23:49.309Z,25.30
2018-08-06T19:28:40.221Z,25.10
2018-08-06T19:33:31.155Z,24.90
2018-08-06T19:38:22.085Z,24.70
2018-08-06T19:43:12.976Z,24.50
2018-08-06T19:48:03.909Z,24.30
2018-08-06T19:52:54.823Z,24.10
2018-08-06T19:57:45.717Z,23.90
2018-08-06T20:02:36.652Z,23.70
2018-08-06T20:07:27.589Z,23.50
2018-08-06T20:12:18.499Z,23.30
2018-08-06T20:17:10.119Z,23.20
2018-08-06T20:22:01.902Z,22.80
2018-08-06T20:26:53.815Z,22.70
2018-08-06T20:31:44.720Z,22.60
2018-08-06T20:36:35.682Z,22.50
2018-08-06T20:41:27.390Z,22.20
2018-08-06T20:46:18.428Z,22.10
2018-08-06T20:51:09.527Z,22.00
2018-08-06T20:56:00.424Z,21.90
2018-08-06T21:00:51.422Z,21.70
2018-08-06T21:05:42.321Z,21.60
2018-08-06T21:10:34.325Z,21.40
2018-08-06T21:15:25.255Z,21.30
2018-08-06T21:20:16.179Z,21.20
2018-08-06T21:25:07.545Z,21.20
2018-08-06T21:29:58.471Z,21.00
2018-08-06T21:34:49.460Z,20.90
2018-08-06T21:39:40.369Z,20.70
2018-08-06T21:44:32.160Z,20.50
2018-08-06T21:49:23.353Z,20.50
2018-08-06T21:54:14.572Z,20.40
2018-08-06T21:59:06.245Z,20.20
2018-08-06T22:03:57.156Z,20.20
2018-08-06T22:08:48.250Z,20.10
2018-08-06T22:13:40.083Z,20.00
2018-08-06T22:18:31.553Z,19.90
2018-08-06T22:23:22.555Z,19.80
2018-08-06T22:28:14.199Z,19.60
2018-08-06T22:33:05.915Z,19.60
2018-08-06T22:37:56.838Z,19.60
2018-08-06T22:42:48.543Z,19.40
2018-08-06T22:47:39.495Z,19.40
2018-08-06T22:52:31.195Z,19.30
2018-08-06T22:57:22.328Z,19.30
2018-08-06T23:02:13.350Z,19.20
2018-08-06T23:07:04.407Z,19.20
2018-08-06T23:11:56.045Z,19.10
2018-08-06T23:16:47.675Z,19.10
2018-08-06T23:21:39.405Z,19.00
2018-08-06T23:26:31.040Z,19.00
2018-08-06T23:31:22.679Z,19.00
2018-08-06T23:36:14.364Z,19.00
2018-08-06T23:41:05.264Z,19.00
2018-08-06T23:45:56.142Z,19.00
2018-08-06T23:50:47.138Z,19.00
2018-08-06T23:55:38.037Z,18.90
